Terminal Aerodrome Forecast
Issued by NWS

Home | Current Version | Previous Version | Text Only | Print | Product List | Glossary On
Versions: 1 2 3 4 5 6 7 8 9 10 11 12 13 14 15 16 17 18 19 20 21 22 23 24 25 26 27 28 29 30 31 32 33 34 35 36 37 38 39
000
FTUS43 KPAH 031354 AAA
TAFOWB
TAF AMD
KOWB 031354Z 0314/0412 18008KT 4SM BR OVC012
      TEMPO 0314/0318 2SM -SHRA BR OVC008
     FM031800 19009KT 6SM -SHRA OVC008
     FM032100 21012G21KT 5SM -RA BR OVC005
     FM040000 23008KT 3SM -RA BR OVC004
     FM040700 32010KT 2SM BR OVC003
     FM040900 35010G17KT 3SM -RA BR OVC003=

USA.gov is the U.S. government's official web portal to all federal, state and local government web resources and services.